createdAt,value
2018-03-17T00:01:01.576Z,93.96
2018-03-17T00:03:32.941Z,93.54
2018-03-17T00:06:03.990Z,93.30
2018-03-17T00:08:38.783Z,93.36
2018-03-17T00:11:09.925Z,92.96
2018-03-17T00:13:40.672Z,92.80
2018-03-17T00:16:12.056Z,92.68
2018-03-17T00:18:47.832Z,93.15
2018-03-17T00:21:18.666Z,92.57
2018-03-17T00:23:50.640Z,92.41
2018-03-17T00:26:21.560Z,92.87
2018-03-17T00:28:59.494Z,93.55
2018-03-17T00:31:30.500Z,93.68
2018-03-17T00:34:01.285Z,93.94
2018-03-17T00:36:32.793Z,92.87
2018-03-17T00:39:05.033Z,92.71
2018-03-17T00:41:36.564Z,92.07
2018-03-17T00:44:07.672Z,92.71
2018-03-17T00:46:39.549Z,92.33
2018-03-17T00:49:10.636Z,92.52
2018-03-17T00:51:41.917Z,91.76
2018-03-17T00:54:12.758Z,92.32
2018-03-17T00:56:44.097Z,92.17
2018-03-17T00:59:18.532Z,91.68
2018-03-17T01:01:49.867Z,91.88
2018-03-17T01:04:20.730Z,91.81
2018-03-17T01:06:52.910Z,92.16
2018-03-17T01:09:23.810Z,91.76
2018-03-17T01:11:55.466Z,92.24
2018-03-17T01:14:27.526Z,93.20
2018-03-17T01:16:58.853Z,91.91
2018-03-17T01:19:30.211Z,91.58
2018-03-17T01:22:01.242Z,92.41
2018-03-17T01:24:32.081Z,92.82
2018-03-17T01:27:02.888Z,92.10
2018-03-17T01:29:34.255Z,91.96
2018-03-17T01:32:05.382Z,92.09
2018-03-17T01:34:36.716Z,91.70
2018-03-17T01:37:07.849Z,92.86
2018-03-17T01:39:39.037Z,92.56
2018-03-17T01:42:10.262Z,91.50
2018-03-17T01:44:42.064Z,92.17
2018-03-17T01:47:13.517Z,91.42
2018-03-17T01:49:44.940Z,91.90
2018-03-17T01:52:16.042Z,91.57
2018-03-17T01:54:47.232Z,91.16
2018-03-17T01:57:18.920Z,91.44
2018-03-17T01:59:52.597Z,92.24
2018-03-17T02:05:13.997Z,92.80
2018-03-17T02:07:45.838Z,93.38
2018-03-17T02:10:17.281Z,93.06
2018-03-17T02:12:49.178Z,92.78
2018-03-17T02:15:20.292Z,92.42
2018-03-17T02:17:51.737Z,91.62
2018-03-17T02:20:23.637Z,91.37
2018-03-17T02:22:54.850Z,92.65
2018-03-17T02:25:26.392Z,93.12
2018-03-17T02:27:57.745Z,92.88
2018-03-17T02:30:28.870Z,92.78
2018-03-17T02:33:00.290Z,92.49
2018-03-17T02:35:31.876Z,91.72
2018-03-17T02:38:03.467Z,93.33
2018-03-17T02:40:34.824Z,94.36
2018-03-17T02:43:06.510Z,93.62
2018-03-17T02:45:38.041Z,93.05
2018-03-17T02:48:09.337Z,93.46
2018-03-17T02:50:41.241Z,93.45
2018-03-17T02:53:13.004Z,92.63
2018-03-17T02:55:44.700Z,93.19
2018-03-17T02:58:15.534Z,93.18
2018-03-17T03:00:47.205Z,92.70
2018-03-17T03:03:19.074Z,93.73
2018-03-17T03:05:50.901Z,94.04
2018-03-17T03:08:22.796Z,93.88
2018-03-17T03:10:54.185Z,93.93
2018-03-17T03:13:25.881Z,93.52
2018-03-17T03:15:57.466Z,93.61
2018-03-17T03:18:29.139Z,92.95
2018-03-17T03:21:01.145Z,93.68
2018-03-17T03:23:32.752Z,93.55
2018-03-17T03:26:04.270Z,93.53
2018-03-17T03:28:35.644Z,93.10
2018-03-17T03:31:07.301Z,92.65
2018-03-17T03:33:39.372Z,91.90
2018-03-17T03:36:11.218Z,93.14
2018-03-17T03:38:42.889Z,92.32
2018-03-17T03:41:15.077Z,92.44
2018-03-17T03:43:46.505Z,92.53
2018-03-17T03:46:19.706Z,92.93
2018-03-17T03:48:51.117Z,93.70
2018-03-17T03:51:22.583Z,93.24
2018-03-17T03:53:54.477Z,92.60
2018-03-17T03:56:26.333Z,91.44
2018-03-17T03:58:58.052Z,91.44
2018-03-17T04:01:29.907Z,91.69
2018-03-17T04:04:01.372Z,91.83
2018-03-17T04:06:32.863Z,91.74
2018-03-17T04:09:05.061Z,91.62
2018-03-17T04:11:36.173Z,91.45
2018-03-17T04:14:07.681Z,91.32
2018-03-17T04:16:39.737Z,91.29
2018-03-17T04:19:11.593Z,91.83
2018-03-17T04:21:43.054Z,92.17
2018-03-17T04:24:14.807Z,92.19
2018-03-17T04:26:46.521Z,92.01
2018-03-17T04:29:18.605Z,91.78
2018-03-17T04:31:50.092Z,91.22
2018-03-17T04:34:21.949Z,90.67
2018-03-17T04:36:54.202Z,90.08
2018-03-17T04:39:25.924Z,89.70
2018-03-17T04:41:57.485Z,89.09
2018-03-17T04:44:29.388Z,90.79
2018-03-17T04:47:01.113Z,89.59
2018-03-17T04:49:32.844Z,89.82
2018-03-17T04:52:04.776Z,88.99
2018-03-17T04:54:37.092Z,90.28
2018-03-17T04:57:08.945Z,90.26
2018-03-17T04:59:40.833Z,90.09
2018-03-17T05:02:12.388Z,90.90
2018-03-17T05:04:44.236Z,92.68
2018-03-17T05:07:15.824Z,91.91
2018-03-17T05:09:47.198Z,91.82
2018-03-17T05:12:18.782Z,92.42
2018-03-17T05:14:50.693Z,91.45
2018-03-17T05:17:22.377Z,91.28
2018-03-17T05:19:53.965Z,91.09
2018-03-17T05:22:26.093Z,90.67
2018-03-17T05:24:58.222Z,91.27
2018-03-17T05:27:30.232Z,91.28
2018-03-17T05:30:01.500Z,91.12
2018-03-17T05:32:33.733Z,91.38
2018-03-17T05:35:05.316Z,90.25
2018-03-17T05:37:37.040Z,90.99
2018-03-17T05:40:09.232Z,89.88
2018-03-17T05:42:40.596Z,88.84
2018-03-17T05:45:12.728Z,89.09
2018-03-17T05:47:44.296Z,89.26
2018-03-17T05:50:15.355Z,88.76
2018-03-17T05:52:47.898Z,89.13
2018-03-17T05:55:19.517Z,90.32
2018-03-17T05:57:51.353Z,89.74
2018-03-17T06:00:22.924Z,88.91
2018-03-17T06:02:54.425Z,89.03
2018-03-17T06:05:26.199Z,88.70
2018-03-17T06:07:57.741Z,89.11
2018-03-17T06:10:29.555Z,89.32
2018-03-17T06:13:01.424Z,88.57
2018-03-17T06:15:33.785Z,88.50
2018-03-17T06:18:06.549Z,88.73
2018-03-17T06:20:38.108Z,88.42
2018-03-17T06:23:09.744Z,87.76
2018-03-17T06:25:41.849Z,88.08
2018-03-17T06:28:13.914Z,88.07
2018-03-17T06:30:45.813Z,87.44
2018-03-17T06:33:17.553Z,86.91
2018-03-17T06:35:49.353Z,87.25
2018-03-17T06:38:21.037Z,86.89
2018-03-17T06:40:52.818Z,86.92
2018-03-17T06:43:23.913Z,87.64
2018-03-17T06:45:55.837Z,87.56
2018-03-17T06:48:27.434Z,87.05
2018-03-17T06:51:03.448Z,87.64
2018-03-17T06:53:35.303Z,88.04
2018-03-17T06:56:06.648Z,88.72
2018-03-17T06:58:38.030Z,88.73
2018-03-17T07:01:10.129Z,88.45
2018-03-17T07:03:42.053Z,88.10
2018-03-17T07:06:13.611Z,87.44
2018-03-17T07:08:44.808Z,87.35
2018-03-17T07:11:16.603Z,87.37
2018-03-17T07:13:48.458Z,87.00
2018-03-17T07:16:19.950Z,87.96
2018-03-17T07:18:52.164Z,87.68
2018-03-17T07:21:23.839Z,87.81
2018-03-17T07:23:55.210Z,88.56
2018-03-17T07:26:26.775Z,88.59
2018-03-17T07:28:58.974Z,88.14
2018-03-17T07:31:30.722Z,87.91
2018-03-17T07:34:02.263Z,87.80
2018-03-17T07:36:38.515Z,88.01
2018-03-17T07:39:10.405Z,87.68
2018-03-17T07:41:42.289Z,87.74
2018-03-17T07:44:13.823Z,87.87
2018-03-17T07:46:45.133Z,88.04
2018-03-17T07:49:16.908Z,87.68
2018-03-17T07:51:48.687Z,88.63
2018-03-17T07:54:19.853Z,88.17
2018-03-17T07:56:51.608Z,88.23
2018-03-17T07:59:23.360Z,89.05
2018-03-17T08:01:55.249Z,88.06
2018-03-17T08:04:26.769Z,88.38
2018-03-17T08:06:58.333Z,89.01
2018-03-17T08:09:29.622Z,88.13
2018-03-17T08:12:01.270Z,88.35
2018-03-17T08:14:33.535Z,88.20
2018-03-17T08:17:05.205Z,88.49
2018-03-17T08:19:37.598Z,88.57
2018-03-17T08:22:08.801Z,87.48
2018-03-17T08:24:39.899Z,88.08
2018-03-17T08:27:11.391Z,88.12
2018-03-17T08:29:42.701Z,88.02
2018-03-17T08:32:14.282Z,87.83
2018-03-17T08:34:45.910Z,87.67
2018-03-17T08:37:17.065Z,87.48
2018-03-17T08:39:48.122Z,87.15
2018-03-17T08:42:19.263Z,87.77
2018-03-17T08:44:50.295Z,88.39
2018-03-17T08:47:21.761Z,87.58
2018-03-17T08:49:53.575Z,87.23
2018-03-17T08:52:24.667Z,87.96
2018-03-17T08:54:55.777Z,88.21
2018-03-17T08:57:35.631Z,88.08
2018-03-17T09:00:11.066Z,87.53
2018-03-17T09:02:42.517Z,87.91
2018-03-17T09:05:13.670Z,87.40
2018-03-17T09:07:44.734Z,87.61
2018-03-17T09:10:16.269Z,88.50
2018-03-17T09:12:47.858Z,87.72
2018-03-17T09:15:19.532Z,88.55
2018-03-17T09:17:50.665Z,87.61
2018-03-17T09:20:24.720Z,87.43
2018-03-17T09:22:55.792Z,87.29
2018-03-17T09:25:26.910Z,87.70
2018-03-17T09:27:58.263Z,86.74
2018-03-17T09:30:29.394Z,86.97
2018-03-17T09:33:00.470Z,87.31
2018-03-17T09:35:32.739Z,87.04
2018-03-17T09:38:03.834Z,87.50
2018-03-17T09:40:35.537Z,87.07
2018-03-17T09:43:06.977Z,86.94
2018-03-17T09:45:38.514Z,86.91
2018-03-17T09:48:10.477Z,87.07
2018-03-17T09:50:41.881Z,87.39
2018-03-17T09:53:13.037Z,86.89
2018-03-17T09:55:44.496Z,86.66
2018-03-17T09:58:15.690Z,86.91
2018-03-17T10:00:46.837Z,86.93
2018-03-17T10:03:18.349Z,86.51
2018-03-17T10:05:49.556Z,87.28
2018-03-17T10:08:20.916Z,87.69
2018-03-17T10:10:52.240Z,87.83
2018-03-17T10:13:24.074Z,87.63
2018-03-17T10:15:55.505Z,87.77
2018-03-17T10:18:27.301Z,87.61
2018-03-17T10:20:58.449Z,87.40
2018-03-17T10:23:29.868Z,88.19
2018-03-17T10:26:01.076Z,87.62
2018-03-17T10:28:32.194Z,87.93
2018-03-17T10:31:03.537Z,87.43
2018-03-17T10:33:34.626Z,87.43
2018-03-17T10:36:05.731Z,87.48
2018-03-17T10:38:37.161Z,87.02
2018-03-17T10:41:08.438Z,87.44
2018-03-17T10:43:39.907Z,87.48
2018-03-17T10:46:10.979Z,87.79
2018-03-17T10:48:42.117Z,87.37
2018-03-17T10:51:13.623Z,87.04
2018-03-17T10:53:44.729Z,86.69
2018-03-17T10:56:15.865Z,86.95
2018-03-17T10:58:47.241Z,87.36
2018-03-17T11:01:26.812Z,87.27
2018-03-17T11:03:58.217Z,87.56
2018-03-17T11:06:29.386Z,88.57
2018-03-17T11:09:00.847Z,88.39
2018-03-17T11:11:31.970Z,88.17
2018-03-17T11:14:03.020Z,87.78
2018-03-17T11:16:34.361Z,87.63
2018-03-17T11:19:05.597Z,87.68
2018-03-17T11:21:36.752Z,87.27
2018-03-17T11:24:08.120Z,87.34
2018-03-17T11:26:39.329Z,87.26
2018-03-17T11:29:10.685Z,87.42
2018-03-17T11:31:41.957Z,87.95
2018-03-17T11:34:13.100Z,88.02
2018-03-17T11:36:45.460Z,87.92
2018-03-17T11:39:16.628Z,87.40
2018-03-17T11:41:47.849Z,88.11
2018-03-17T11:44:19.381Z,87.64
2018-03-17T11:46:50.912Z,88.03
2018-03-17T11:49:22.302Z,87.94
2018-03-17T11:51:53.708Z,86.93
2018-03-17T11:54:25.400Z,87.87
2018-03-17T11:56:56.793Z,87.76
2018-03-17T11:59:27.870Z,87.29
2018-03-17T12:01:58.995Z,87.69
2018-03-17T12:04:30.468Z,88.44
2018-03-17T12:07:02.335Z,87.83
2018-03-17T12:09:33.349Z,87.14
2018-03-17T12:12:05.875Z,87.53
2018-03-17T12:14:38.147Z,87.24
2018-03-17T12:17:09.669Z,87.06
2018-03-17T12:19:40.773Z,88.61
2018-03-17T12:22:12.619Z,88.18
2018-03-17T12:24:44.044Z,87.46
2018-03-17T12:27:15.310Z,87.03
2018-03-17T12:29:46.610Z,87.80
2018-03-17T12:32:19.423Z,87.04
2018-03-17T12:34:50.969Z,87.52
2018-03-17T12:37:22.853Z,88.22
2018-03-17T12:39:53.965Z,87.93
2018-03-17T12:42:25.155Z,88.50
2018-03-17T12:44:56.832Z,88.22
2018-03-17T12:47:28.011Z,88.46
2018-03-17T12:49:59.074Z,87.95
2018-03-17T12:52:30.774Z,88.07
2018-03-17T12:55:01.925Z,88.31
2018-03-17T12:57:33.522Z,88.24
2018-03-17T13:00:06.508Z,87.88
2018-03-17T13:02:37.558Z,87.45
2018-03-17T13:05:08.844Z,87.74
2018-03-17T13:07:40.293Z,87.36
2018-03-17T13:10:12.313Z,87.10
2018-03-17T13:12:43.812Z,87.19
2018-03-17T13:15:15.327Z,87.76
2018-03-17T13:17:46.605Z,87.36
2018-03-17T13:20:18.433Z,87.75
2018-03-17T13:22:58.009Z,87.49
2018-03-17T13:25:29.520Z,87.79
2018-03-17T13:28:27.661Z,87.17
2018-03-17T13:30:59.281Z,87.92
2018-03-17T13:33:30.525Z,87.46
2018-03-17T13:36:11.844Z,87.33
2018-03-17T13:38:43.932Z,87.62
2018-03-17T13:41:15.169Z,87.76
2018-03-17T13:43:46.897Z,88.08
2018-03-17T13:46:18.013Z,87.68
2018-03-17T13:48:49.080Z,88.03
2018-03-17T13:51:20.433Z,87.78
2018-03-17T13:53:51.988Z,86.94
2018-03-17T13:56:24.036Z,87.70
2018-03-17T13:58:55.476Z,87.69
2018-03-17T14:01:26.632Z,87.51
2018-03-17T14:03:58.017Z,88.14
2018-03-17T14:06:30.098Z,87.06
2018-03-17T14:09:12.150Z,87.04
2018-03-17T14:11:53.191Z,87.17
2018-03-17T14:14:33.869Z,87.48
2018-03-17T14:17:15.233Z,86.71
2018-03-17T14:19:49.982Z,86.96
2018-03-17T14:22:25.237Z,87.08
2018-03-17T14:24:56.717Z,87.33
2018-03-17T14:27:28.245Z,86.87
2018-03-17T14:30:05.180Z,87.79
2018-03-17T14:32:39.145Z,87.83
2018-03-17T14:35:22.605Z,88.46
2018-03-17T14:37:56.625Z,87.80
2018-03-17T14:40:29.210Z,88.28
2018-03-17T14:43:00.379Z,87.80
2018-03-17T14:45:35.081Z,87.83
2018-03-17T14:48:07.491Z,88.00
2018-03-17T14:50:38.600Z,88.54
2018-03-17T14:53:10.026Z,88.36
2018-03-17T14:55:41.161Z,89.18
2018-03-17T14:58:12.432Z,89.03
2018-03-17T15:00:43.557Z,88.50
2018-03-17T15:03:15.145Z,87.79
2018-03-17T15:05:46.933Z,88.09
2018-03-17T15:08:18.051Z,88.28
2018-03-17T15:10:49.477Z,88.73
2018-03-17T15:13:21.525Z,88.89
2018-03-17T15:15:53.294Z,89.40
2018-03-17T15:18:24.889Z,88.72
2018-03-17T15:20:59.412Z,88.32
2018-03-17T15:23:32.504Z,88.29
2018-03-17T15:26:04.098Z,88.04
2018-03-17T15:28:35.220Z,88.91
2018-03-17T15:31:06.718Z,89.19
2018-03-17T15:33:37.875Z,89.17
2018-03-17T15:36:09.754Z,89.10
2018-03-17T15:38:40.885Z,88.43
2018-03-17T15:41:12.153Z,88.09
2018-03-17T15:43:43.378Z,88.72
2018-03-17T15:46:14.612Z,88.34
2018-03-17T15:48:45.777Z,88.35
2018-03-17T15:51:16.841Z,88.35
2018-03-17T15:53:48.261Z,88.76
2018-03-17T15:56:19.441Z,88.45
2018-03-17T15:58:53.488Z,88.57
2018-03-17T16:01:24.869Z,88.34
2018-03-17T16:03:56.246Z,88.93
2018-03-17T16:06:28.015Z,88.23
2018-03-17T16:08:59.465Z,88.13
2018-03-17T16:11:30.653Z,88.57
2018-03-17T16:14:02.067Z,88.94
2018-03-17T16:16:33.293Z,90.15
2018-03-17T16:19:04.409Z,89.31
2018-03-17T16:21:36.510Z,89.10
2018-03-17T16:24:07.672Z,89.50
2018-03-17T16:26:39.137Z,89.43
2018-03-17T16:29:10.594Z,89.56
2018-03-17T16:31:41.677Z,89.90
2018-03-17T16:34:13.085Z,90.14
2018-03-17T16:36:44.156Z,90.16
2018-03-17T16:39:16.314Z,89.56
2018-03-17T16:41:47.806Z,90.34
2018-03-17T16:44:18.994Z,90.46
2018-03-17T16:46:50.178Z,90.77
2018-03-17T16:49:24.575Z,90.61
2018-03-17T16:51:55.746Z,90.39
2018-03-17T16:54:27.264Z,90.18
2018-03-17T16:56:58.464Z,89.77
2018-03-17T16:59:29.618Z,89.58
2018-03-17T17:02:01.122Z,88.65
2018-03-17T17:04:32.274Z,88.92
2018-03-17T17:07:03.439Z,89.18
2018-03-17T17:09:34.907Z,89.09
2018-03-17T17:12:06.125Z,88.96
2018-03-17T17:14:37.344Z,88.89
2018-03-17T17:17:08.501Z,88.62
2018-03-17T17:19:39.713Z,88.55
2018-03-17T17:22:10.905Z,89.20
2018-03-17T17:24:42.092Z,89.54
2018-03-17T17:27:13.289Z,89.97
2018-03-17T17:29:45.010Z,89.63
2018-03-17T17:32:16.211Z,89.11
2018-03-17T17:34:50.735Z,89.48
2018-03-17T17:37:21.834Z,88.94
2018-03-17T17:39:53.237Z,89.06
2018-03-17T17:42:24.307Z,88.97
2018-03-17T17:44:55.385Z,89.01
2018-03-17T17:47:26.912Z,89.19
2018-03-17T17:49:58.363Z,89.21
2018-03-17T17:52:30.349Z,89.62
2018-03-17T17:55:01.558Z,88.84
2018-03-17T17:57:32.618Z,89.08
2018-03-17T18:00:04.539Z,89.56
2018-03-17T18:02:35.805Z,89.91
2018-03-17T18:05:07.188Z,89.57
2018-03-17T18:07:38.625Z,89.66
2018-03-17T18:10:11.163Z,89.87
2018-03-17T18:12:42.733Z,89.86
2018-03-17T18:15:13.891Z,89.71
2018-03-17T18:17:45.027Z,89.42
2018-03-17T18:20:16.428Z,90.12
2018-03-17T18:22:48.730Z,89.62
2018-03-17T18:25:19.870Z,89.43
2018-03-17T18:27:51.645Z,89.46
2018-03-17T18:30:24.537Z,89.47
2018-03-17T18:32:56.074Z,89.73
2018-03-17T18:35:28.923Z,89.52
2018-03-17T18:38:01.414Z,89.72
2018-03-17T18:40:34.543Z,89.54
2018-03-17T18:43:05.926Z,94.67
2018-03-17T18:45:37.461Z,89.99
2018-03-17T18:48:08.761Z,89.98
2018-03-17T18:50:39.891Z,89.63
2018-03-17T18:53:11.955Z,89.72
2018-03-17T18:55:43.059Z,88.87
2018-03-17T18:58:14.237Z,89.01
2018-03-17T19:00:45.746Z,88.69
2018-03-17T19:03:17.547Z,88.55
2018-03-17T19:05:49.277Z,88.04
2018-03-17T19:08:20.437Z,87.97
2018-03-17T19:10:51.657Z,88.06
2018-03-17T19:13:23.098Z,87.27
2018-03-17T19:15:54.333Z,87.02
2018-03-17T19:18:25.509Z,86.89
2018-03-17T19:20:56.945Z,87.31
2018-03-17T19:23:28.131Z,86.87
2018-03-17T19:25:59.249Z,86.74
2018-03-17T19:28:30.404Z,86.95
2018-03-17T19:31:01.531Z,86.51
2018-03-17T19:33:32.916Z,86.25
2018-03-17T19:36:04.065Z,86.76
2018-03-17T19:38:35.297Z,86.13
2018-03-17T19:41:07.469Z,86.43
2018-03-17T19:43:38.753Z,86.18
2018-03-17T19:46:10.071Z,86.44
2018-03-17T19:48:41.763Z,85.85
2018-03-17T19:51:13.320Z,86.25
2018-03-17T19:53:44.852Z,86.07
2018-03-17T19:56:16.321Z,86.29
2018-03-17T19:58:47.473Z,85.86
2018-03-17T20:01:18.701Z,85.70
2018-03-17T20:03:50.634Z,85.97
2018-03-17T20:06:24.734Z,85.43
2018-03-17T20:08:58.837Z,85.35
2018-03-17T20:11:32.144Z,85.24
2018-03-17T20:14:03.679Z,85.40
2018-03-17T20:16:35.032Z,84.88
2018-03-17T20:19:10.475Z,84.26
2018-03-17T20:21:42.128Z,84.38
2018-03-17T20:24:13.367Z,85.15
2018-03-17T20:26:45.122Z,84.80
2018-03-17T20:29:16.388Z,84.81
2018-03-17T20:31:48.333Z,84.66
2018-03-17T20:34:19.924Z,85.11
2018-03-17T20:36:51.258Z,85.26
2018-03-17T20:39:22.551Z,85.12
2018-03-17T20:41:54.081Z,85.10
2018-03-17T20:44:25.352Z,85.14
2018-03-17T20:46:56.886Z,85.43
2018-03-17T20:49:28.205Z,85.46
2018-03-17T20:51:59.547Z,85.17
2018-03-17T20:54:30.968Z,85.58
2018-03-17T20:57:02.341Z,85.11
2018-03-17T20:59:33.572Z,85.09
2018-03-17T21:02:05.238Z,84.83
2018-03-17T21:04:36.548Z,84.49
2018-03-17T21:07:07.879Z,85.09
2018-03-17T21:09:39.545Z,84.86
2018-03-17T21:12:10.846Z,84.79
2018-03-17T21:14:42.181Z,84.47
2018-03-17T21:17:13.865Z,84.82
2018-03-17T21:19:45.481Z,85.23
2018-03-17T21:22:16.742Z,85.51
2018-03-17T21:24:48.771Z,84.87
2018-03-17T21:27:30.871Z,85.24
2018-03-17T21:30:08.566Z,85.33
2018-03-17T21:32:40.008Z,84.95
2018-03-17T21:35:18.075Z,85.69
2018-03-17T21:37:52.344Z,85.18
2018-03-17T21:40:32.345Z,85.82
2018-03-17T21:43:05.956Z,85.46
2018-03-17T21:48:15.068Z,84.60
2018-03-17T21:50:52.105Z,84.28
2018-03-17T21:53:31.762Z,83.52
2018-03-17T21:56:07.791Z,84.61
2018-03-17T21:58:42.217Z,85.52
2018-03-17T22:01:16.603Z,85.72
2018-03-17T22:03:54.728Z,84.76
2018-03-17T22:06:26.999Z,84.12
2018-03-17T22:08:58.916Z,84.38
2018-03-17T22:11:31.096Z,84.27
2018-03-17T22:14:04.226Z,84.78
2018-03-17T22:16:36.937Z,84.24
2018-03-17T22:19:09.809Z,84.03
2018-03-17T22:21:47.569Z,83.84
2018-03-17T22:24:26.896Z,84.45
2018-03-17T22:26:58.049Z,84.75
2018-03-17T22:29:29.440Z,84.11
2018-03-17T22:32:00.593Z,84.06
2018-03-17T22:34:31.698Z,83.77
2018-03-17T22:37:03.808Z,84.44
2018-03-17T22:39:35.154Z,84.24
2018-03-17T22:42:06.781Z,83.38
2018-03-17T22:44:38.209Z,83.65
2018-03-17T22:47:09.309Z,83.66
2018-03-17T22:49:40.382Z,83.92
2018-03-17T22:52:11.845Z,83.56
2018-03-17T22:54:45.570Z,82.77
2018-03-17T22:57:21.641Z,81.76
2018-03-17T22:59:54.103Z,80.81
2018-03-17T23:02:31.403Z,80.65
2018-03-17T23:05:12.431Z,81.25
2018-03-17T23:07:50.123Z,80.65
2018-03-17T23:10:25.120Z,80.91
2018-03-17T23:12:58.485Z,80.25
2018-03-17T23:15:29.732Z,80.07
2018-03-17T23:18:01.225Z,80.04
2018-03-17T23:20:32.480Z,79.51
2018-03-17T23:23:03.876Z,79.50
2018-03-17T23:25:35.069Z,78.68
2018-03-17T23:28:06.256Z,79.46
2018-03-17T23:30:37.688Z,78.84
2018-03-17T23:33:08.861Z,78.40
2018-03-17T23:35:40.709Z,78.56
2018-03-17T23:38:11.833Z,77.80
2018-03-17T23:40:43.279Z,78.16
2018-03-17T23:43:15.334Z,77.65
2018-03-17T23:45:46.801Z,77.62
2018-03-17T23:48:18.500Z,78.57
2018-03-17T23:50:50.046Z,78.10
2018-03-17T23:53:21.940Z,78.07
2018-03-17T23:55:53.104Z,77.61
2018-03-17T23:58:25.137Z,77.50
